createdAt,value
2023-04-18T00:03:59.855Z,13.82
2023-04-18T00:09:01.669Z,15.70
2023-04-18T00:14:12.300Z,16.90
2023-04-18T00:19:18.366Z,18.80
2023-04-18T00:24:22.633Z,18.42
2023-04-18T00:29:24.278Z,16.73
2023-04-18T00:34:29.164Z,17.33
2023-04-18T00:39:31.290Z,14.57
2023-04-18T00:44:33.056Z,17.58
2023-04-18T00:49:38.498Z,19.23
2023-04-18T00:54:40.726Z,18.42
2023-04-18T00:59:47.243Z,12.85
2023-04-18T01:04:50.192Z,18.02
2023-04-18T01:09:52.839Z,17.88
2023-04-18T01:14:57.233Z,21.75
2023-04-18T01:20:12.945Z,21.40
2023-04-18T01:25:32.253Z,22.20
2023-04-18T01:30:34.377Z,20.80
2023-04-18T01:35:41.511Z,21.98
2023-04-18T01:40:44.840Z,23.80
2023-04-18T01:45:46.565Z,22.70
2023-04-18T01:50:50.113Z,19.73
2023-04-18T01:56:03.182Z,25.90
2023-04-18T02:01:05.039Z,23.10
2023-04-18T02:06:07.397Z,19.88
2023-04-18T02:11:22.159Z,23.45
2023-04-18T02:16:24.107Z,21.17
2023-04-18T02:21:32.265Z,24.08
2023-04-18T02:26:35.229Z,22.35
2023-04-18T02:31:44.214Z,20.98
2023-04-18T02:36:57.658Z,24.42
2023-04-18T02:42:00.664Z,21.73
2023-04-18T02:47:02.306Z,24.20
2023-04-18T02:52:04.650Z,25.13
2023-04-18T02:57:10.645Z,25.25
2023-04-18T03:02:15.145Z,22.30
2023-04-18T03:07:24.223Z,25.25
2023-04-18T03:12:31.866Z,27.38
2023-04-18T03:17:34.508Z,24.98
2023-04-18T03:22:37.945Z,28.00
2023-04-18T03:27:41.208Z,28.42
2023-04-18T03:32:51.032Z,33.67
2023-04-18T03:37:56.290Z,28.73
2023-04-18T03:43:08.510Z,30.25
2023-04-18T03:48:12.241Z,39.45
2023-04-18T03:53:17.765Z,43.75
2023-04-18T03:58:22.090Z,48.88
2023-04-18T04:03:26.020Z,34.22
2023-04-18T04:08:29.206Z,36.00
2023-04-18T04:13:34.257Z,34.63
2023-04-18T04:18:36.332Z,35.83
2023-04-18T04:23:38.149Z,37.55
2023-04-18T04:28:41.589Z,30.25
2023-04-18T04:33:46.250Z,37.55
2023-04-18T04:38:54.752Z,37.30
2023-04-18T04:44:09.273Z,36.33
2023-04-18T04:49:15.935Z,42.63
2023-04-18T04:54:19.734Z,38.85
2023-04-18T04:59:26.839Z,35.78
2023-04-18T05:04:29.165Z,33.03
2023-04-18T05:09:30.919Z,32.03
2023-04-18T05:14:33.908Z,28.00
2023-04-18T05:19:35.527Z,30.92
2023-04-18T05:24:39.873Z,27.42
2023-04-18T05:29:50.382Z,23.45
2023-04-18T05:34:54.588Z,23.55
2023-04-18T05:39:56.832Z,25.52
2023-04-18T05:45:08.280Z,22.30
2023-04-18T05:50:13.055Z,24.08
2023-04-18T05:55:14.647Z,22.67
2023-04-18T06:00:20.557Z,24.85
2023-04-18T06:05:24.606Z,21.75
2023-04-18T06:10:26.468Z,21.27
2023-04-18T06:15:32.352Z,21.98
2023-04-18T06:20:37.665Z,21.33
2023-04-18T06:25:42.457Z,19.00
2023-04-18T06:30:49.862Z,20.02
2023-04-18T06:35:51.501Z,20.27
2023-04-18T06:40:53.422Z,21.60
2023-04-18T06:45:56.568Z,22.15
2023-04-18T06:50:58.338Z,21.02
2023-04-18T06:56:02.204Z,22.17
2023-04-18T07:01:07.624Z,20.98
2023-04-18T07:06:11.552Z,20.02
2023-04-18T07:11:13.291Z,21.88
2023-04-18T07:16:21.630Z,18.67
2023-04-18T07:26:29.855Z,18.35
2023-04-18T07:31:33.006Z,21.00
2023-04-18T07:36:34.763Z,19.55
2023-04-18T07:41:39.023Z,20.23
2023-04-18T07:46:42.179Z,20.95
2023-04-18T07:51:43.794Z,18.27
2023-04-18T07:56:45.442Z,18.02
2023-04-18T08:01:51.646Z,20.13
2023-04-18T08:07:02.123Z,19.17
2023-04-18T08:12:04.183Z,17.52
2023-04-18T08:17:12.544Z,17.33
2023-04-18T08:22:14.261Z,21.10
2023-04-18T08:27:15.922Z,18.15
2023-04-18T08:32:19.151Z,16.10
2023-04-18T08:37:20.885Z,17.40
2023-04-18T08:42:23.497Z,16.52
2023-04-18T08:47:28.803Z,17.63
2023-04-18T08:52:32.348Z,14.80
2023-04-18T08:57:36.980Z,16.35
2023-04-18T09:02:41.346Z,15.13
2023-04-18T09:07:43.185Z,18.10
2023-04-18T09:12:50.247Z,15.60
2023-04-18T09:17:54.937Z,15.77
2023-04-18T09:22:58.932Z,16.40
2023-04-18T09:28:03.561Z,16.92
2023-04-18T09:33:08.471Z,12.65
2023-04-18T09:38:10.554Z,15.30
2023-04-18T09:43:21.498Z,16.38
2023-04-18T09:48:27.941Z,13.88
2023-04-18T09:53:32.164Z,16.48
2023-04-18T09:58:41.220Z,13.50
2023-04-18T10:03:47.859Z,14.43
2023-04-18T10:08:51.879Z,14.70
2023-04-18T10:13:55.988Z,13.25
2023-04-18T10:19:24.870Z,12.05
2023-04-18T10:24:48.724Z,12.73
2023-04-18T10:29:51.890Z,11.07
2023-04-18T10:34:58.413Z,12.40
2023-04-18T10:40:01.029Z,12.35
2023-04-18T10:45:18.758Z,11.52
2023-04-18T10:50:22.040Z,13.73
2023-04-18T10:55:29.637Z,13.55
2023-04-18T11:00:33.297Z,13.63
2023-04-18T11:05:39.206Z,12.32
2023-04-18T11:10:41.456Z,12.80
2023-04-18T11:15:43.102Z,11.13
2023-04-18T11:20:50.820Z,11.48
2023-04-18T11:25:54.705Z,12.67
2023-04-18T11:31:00.671Z,10.00
2023-04-18T11:36:12.325Z,11.27
2023-04-18T11:41:15.601Z,13.73
2023-04-18T11:46:22.007Z,12.85
2023-04-18T11:51:36.123Z,10.15
2023-04-18T11:56:48.181Z,11.48
2023-04-18T12:02:15.573Z,8.82
2023-04-18T12:07:43.320Z,10.02
2023-04-18T12:12:50.999Z,9.13
2023-04-18T12:17:56.681Z,8.67
2023-04-18T12:23:03.849Z,9.48
2023-04-18T12:28:19.050Z,9.55
2023-04-18T12:33:23.866Z,9.35
2023-04-18T12:38:37.466Z,8.13
2023-04-18T12:43:39.393Z,8.77
2023-04-18T12:48:46.778Z,8.93
2023-04-18T12:53:52.712Z,7.88
2023-04-18T12:58:57.171Z,9.10
2023-04-18T13:04:10.633Z,9.93
2023-04-18T13:09:15.264Z,9.10
2023-04-18T13:14:19.933Z,7.95
2023-04-18T13:19:21.663Z,7.30
2023-04-18T13:24:27.035Z,8.00
2023-04-18T13:29:28.778Z,7.50
2023-04-18T13:34:34.181Z,7.28
2023-04-18T13:39:37.257Z,6.30
2023-04-18T13:44:43.905Z,5.35
2023-04-18T13:49:48.131Z,5.95
2023-04-18T13:54:56.584Z,6.15
2023-04-18T14:00:00.760Z,5.88
2023-04-18T14:05:02.762Z,7.18
2023-04-18T14:10:07.929Z,7.32
2023-04-18T14:15:10.537Z,7.90
2023-04-18T14:20:16.844Z,8.88
2023-04-18T14:25:20.218Z,9.80
2023-04-18T14:30:23.551Z,8.82
2023-04-18T14:35:27.957Z,8.35
2023-04-18T14:40:33.634Z,7.38
2023-04-18T14:45:39.939Z,8.20
2023-04-18T14:50:46.306Z,7.63
2023-04-18T14:55:56.804Z,10.30
2023-04-18T15:00:58.514Z,11.27
2023-04-18T15:06:08.109Z,14.05
2023-04-18T15:11:13.368Z,22.20
2023-04-18T15:16:22.326Z,17.45
2023-04-18T15:21:27.515Z,15.23
2023-04-18T15:26:32.934Z,15.05
2023-04-18T15:31:35.839Z,14.90
2023-04-18T15:36:39.994Z,15.70
2023-04-18T15:41:45.974Z,15.77
2023-04-18T15:46:57.212Z,13.98
2023-04-18T15:51:58.912Z,16.65
2023-04-18T15:57:03.791Z,16.95
2023-04-18T16:02:06.757Z,29.38
2023-04-18T16:07:10.610Z,22.42
2023-04-18T16:12:13.592Z,17.33
2023-04-18T16:17:20.423Z,13.13
2023-04-18T16:22:22.137Z,14.43
2023-04-18T16:27:28.322Z,13.45
2023-04-18T16:32:34.713Z,13.60
2023-04-18T16:37:43.334Z,14.68
2023-04-18T16:42:48.569Z,13.30
2023-04-18T16:47:53.354Z,14.73
2023-04-18T16:52:55.090Z,13.52
2023-04-18T16:57:58.111Z,13.02
2023-04-18T17:03:05.296Z,13.65
2023-04-18T17:08:12.275Z,12.60
2023-04-18T17:13:18.255Z,14.38
2023-04-18T17:18:19.931Z,12.80
2023-04-18T17:23:21.772Z,13.43
2023-04-18T17:28:29.782Z,13.02
2023-04-18T17:33:34.542Z,12.48
2023-04-18T17:38:36.232Z,12.48
2023-04-18T17:43:39.540Z,15.50
2023-04-18T17:48:41.264Z,15.63
2023-04-18T17:53:48.271Z,12.48
2023-04-18T17:58:56.466Z,13.73
2023-04-18T18:03:58.845Z,12.30
2023-04-18T18:09:03.641Z,12.52
2023-04-18T18:14:14.357Z,12.18
2023-04-18T18:19:17.950Z,12.77
2023-04-18T18:24:19.681Z,17.17
2023-04-18T18:29:30.713Z,13.73
2023-04-18T18:34:32.371Z,14.00
2023-04-18T18:39:34.159Z,14.20
2023-04-18T18:44:48.280Z,14.03
2023-04-18T18:49:49.936Z,13.00
2023-04-18T18:54:52.809Z,14.27
2023-04-18T18:59:58.805Z,15.40
2023-04-18T19:05:00.734Z,14.82
2023-04-18T19:10:05.603Z,13.73
2023-04-18T19:15:10.066Z,16.42
2023-04-18T19:20:11.813Z,16.45
2023-04-18T19:25:15.952Z,16.13
2023-04-18T19:30:19.374Z,17.83
2023-04-18T19:35:31.125Z,17.15
2023-04-18T19:40:33.370Z,14.60
2023-04-18T19:45:45.040Z,14.38
2023-04-18T19:50:50.568Z,17.40
2023-04-18T19:55:56.569Z,16.10
2023-04-18T20:01:03.166Z,15.85
2023-04-18T20:06:06.091Z,15.50
2023-04-18T20:11:12.053Z,16.40
2023-04-18T20:16:21.305Z,30.00
2023-04-18T20:21:25.717Z,16.25
2023-04-18T20:26:30.000Z,17.70
2023-04-18T20:31:36.018Z,15.95
2023-04-18T20:36:37.824Z,16.67
2023-04-18T20:41:42.805Z,14.98
2023-04-18T20:46:45.884Z,15.15
2023-04-18T20:51:49.681Z,22.50
2023-04-18T20:56:58.425Z,28.08
2023-04-18T21:02:01.662Z,16.58
2023-04-18T21:07:04.169Z,15.02
2023-04-18T21:12:08.725Z,16.98
2023-04-18T21:17:11.816Z,16.13
2023-04-18T21:22:18.663Z,15.20
2023-04-18T21:27:20.319Z,16.60
2023-04-18T21:32:26.166Z,12.85
2023-04-18T21:37:28.172Z,15.55
2023-04-18T21:42:29.946Z,13.75
2023-04-18T21:47:33.267Z,14.48
2023-04-18T21:52:37.627Z,15.48
2023-04-18T21:57:39.232Z,18.38
2023-04-18T22:02:42.445Z,15.88
2023-04-18T22:07:58.244Z,16.25
2023-04-18T22:13:00.499Z,13.48
2023-04-18T22:18:08.089Z,14.45
2023-04-18T22:23:10.031Z,14.13
2023-04-18T22:28:11.714Z,12.90
2023-04-18T22:33:17.194Z,13.45
2023-04-18T22:38:30.766Z,12.30
2023-04-18T22:43:50.595Z,10.40
2023-04-18T22:48:53.581Z,10.52
2023-04-18T22:53:58.164Z,12.35
2023-04-18T22:59:02.474Z,11.10
2023-04-18T23:04:05.949Z,11.95
2023-04-18T23:09:07.784Z,10.48
2023-04-18T23:14:12.100Z,11.25
2023-04-18T23:19:20.936Z,9.20
2023-04-18T23:24:22.583Z,9.05
2023-04-18T23:29:36.590Z,11.55
2023-04-18T23:34:39.858Z,10.70
2023-04-18T23:39:41.497Z,8.20
2023-04-18T23:44:58.789Z,9.95
2023-04-18T23:50:04.323Z,9.57
2023-04-18T23:55:06.729Z,9.80
